createdAt,value
2023-05-06T00:00:08.003Z,1273.00
2023-05-06T00:01:08.016Z,1295.00
2023-05-06T00:02:08.065Z,1272.00
2023-05-06T00:03:08.346Z,1283.00
2023-05-06T00:04:08.231Z,1283.00
2023-05-06T00:05:08.440Z,1261.00
2023-05-06T00:06:08.276Z,1278.00
2023-05-06T00:07:08.286Z,1259.00
2023-05-06T00:08:08.347Z,1271.00
2023-05-06T00:09:08.409Z,1267.00
2023-05-06T00:10:08.478Z,1264.00
2023-05-06T00:11:08.491Z,1268.00
2023-05-06T00:12:08.556Z,1265.00
2023-05-06T00:13:08.607Z,1255.00
2023-05-06T00:14:08.639Z,1262.00
2023-05-06T00:15:08.950Z,1263.00
2023-05-06T00:16:08.782Z,1254.00
2023-05-06T00:17:08.800Z,1252.00
2023-05-06T00:18:08.944Z,1275.00
2023-05-06T00:19:08.968Z,1254.00
2023-05-06T00:20:08.975Z,1266.00
2023-05-06T00:21:08.978Z,1254.00
2023-05-06T00:22:09.017Z,1253.00
2023-05-06T00:23:09.096Z,1251.00
2023-05-06T00:24:09.150Z,1258.00
2023-05-06T00:25:09.391Z,1252.00
2023-05-06T00:26:09.283Z,1251.00
2023-05-06T00:27:09.323Z,1252.00
2023-05-06T00:28:09.366Z,1246.00
2023-05-06T00:29:09.419Z,1255.00
2023-05-06T00:30:09.449Z,1245.00
2023-05-06T00:31:09.506Z,1239.00
2023-05-06T00:32:09.705Z,1254.00
2023-05-06T00:33:09.660Z,1245.00
2023-05-06T00:34:09.646Z,1246.00
2023-05-06T00:35:09.951Z,1243.00
2023-05-06T00:36:09.789Z,1231.00
2023-05-06T00:37:09.840Z,1246.00
2023-05-06T00:38:09.872Z,1234.00
2023-05-06T00:39:09.925Z,1247.00
2023-05-06T00:40:09.983Z,1238.00
2023-05-06T00:41:10.035Z,1236.00
2023-05-06T00:42:10.098Z,1238.00
2023-05-06T00:43:10.126Z,1236.00
2023-05-06T00:44:10.169Z,1231.00
2023-05-06T00:45:10.552Z,1233.00
2023-05-06T00:46:10.336Z,1241.00
2023-05-06T00:47:10.317Z,1245.00
2023-05-06T00:48:10.419Z,1233.00
2023-05-06T00:49:10.430Z,1244.00
2023-05-06T00:50:10.514Z,1239.00
2023-05-06T00:51:10.622Z,1234.00
2023-05-06T00:52:10.640Z,1228.00
2023-05-06T00:53:10.677Z,1226.00
2023-05-06T00:54:10.712Z,1226.00
2023-05-06T00:55:10.942Z,1228.00
2023-05-06T00:56:10.857Z,1226.00
2023-05-06T00:57:10.889Z,1225.00
2023-05-06T00:58:10.947Z,1212.00
2023-05-06T00:59:10.989Z,1224.00
2023-05-06T01:00:11.059Z,1225.00
2023-05-06T01:01:11.181Z,1227.00
2023-05-06T01:02:11.172Z,1226.00
2023-05-06T01:03:11.255Z,1230.00
2023-05-06T01:04:11.350Z,1219.00
2023-05-06T01:05:11.556Z,1228.00
2023-05-06T01:06:11.390Z,1216.00
2023-05-06T01:07:11.560Z,1220.00
2023-05-06T01:08:11.532Z,1215.00
2023-05-06T01:09:11.589Z,1223.00
2023-05-06T01:10:11.607Z,1204.00
2023-05-06T01:11:12.412Z,1214.00
2023-05-06T01:12:11.735Z,1214.00
2023-05-06T01:13:11.806Z,1212.00
2023-05-06T01:14:11.829Z,1207.00
2023-05-06T01:15:12.055Z,1213.00
2023-05-06T01:16:11.934Z,1214.00
2023-05-06T01:17:12.054Z,1211.00
2023-05-06T01:18:12.044Z,1201.00
2023-05-06T01:19:12.122Z,1210.00
2023-05-06T01:20:12.181Z,1205.00
2023-05-06T01:21:12.195Z,1208.00
2023-05-06T01:22:12.266Z,1204.00
2023-05-06T01:23:12.367Z,1201.00
2023-05-06T01:24:12.380Z,1200.00
2023-05-06T01:25:12.434Z,1215.00
2023-05-06T01:26:12.477Z,1193.00
2023-05-06T01:27:12.542Z,1207.00
2023-05-06T01:28:12.571Z,1193.00
2023-05-06T01:29:12.645Z,1198.00
2023-05-06T01:30:12.684Z,1195.00
2023-05-06T01:31:12.775Z,1200.00
2023-05-06T01:32:12.805Z,1191.00
2023-05-06T01:33:12.868Z,1194.00
2023-05-06T01:34:12.933Z,1205.00
2023-05-06T01:35:12.984Z,1196.00
2023-05-06T01:36:13.032Z,1188.00
2023-05-06T01:37:13.069Z,1188.00
2023-05-06T01:38:13.145Z,1177.00
2023-05-06T01:39:13.273Z,1196.00
2023-05-06T01:40:13.284Z,1185.00
2023-05-06T01:41:13.313Z,1186.00
2023-05-06T01:42:13.370Z,1172.00
2023-05-06T01:43:13.416Z,1177.00
2023-05-06T01:44:13.468Z,1196.00
2023-05-06T01:45:13.556Z,1202.00
2023-05-06T01:46:13.597Z,1187.00
2023-05-06T01:47:13.637Z,1188.00
2023-05-06T01:48:13.711Z,1184.00
2023-05-06T01:49:13.788Z,1177.00
2023-05-06T01:50:13.862Z,1178.00
2023-05-06T01:51:13.861Z,1180.00
2023-05-06T01:52:13.920Z,1183.00
2023-05-06T01:53:13.992Z,1190.00
2023-05-06T01:54:14.054Z,1171.00
2023-05-06T01:55:14.168Z,1167.00
2023-05-06T01:56:14.191Z,1173.00
2023-05-06T01:57:14.848Z,1178.00
2023-05-06T01:58:14.238Z,1173.00
2023-05-06T01:59:14.330Z,1175.00
2023-05-06T02:00:14.350Z,1183.00
2023-05-06T02:01:14.427Z,1165.00
2023-05-06T02:02:14.457Z,1163.00
2023-05-06T02:03:14.642Z,1172.00
2023-05-06T02:04:14.582Z,1160.00
2023-05-06T02:05:14.633Z,1171.00
2023-05-06T02:06:14.673Z,1174.00
2023-05-06T02:07:14.731Z,1156.00
2023-05-06T02:08:14.826Z,1163.00
2023-05-06T02:09:14.873Z,1165.00
2023-05-06T02:10:14.938Z,1166.00
2023-05-06T02:11:14.977Z,1165.00
2023-05-06T02:12:15.030Z,1165.00
2023-05-06T02:13:15.128Z,1158.00
2023-05-06T02:14:15.134Z,1155.00
2023-05-06T02:15:15.172Z,1154.00
2023-05-06T02:16:15.256Z,1161.00
2023-05-06T02:17:15.288Z,1155.00
2023-05-06T02:18:15.315Z,1161.00
2023-05-06T02:19:15.375Z,1161.00
2023-05-06T02:20:15.417Z,1156.00
2023-05-06T02:21:15.500Z,1160.00
2023-05-06T02:22:15.517Z,1136.00
2023-05-06T02:23:15.599Z,1162.00
2023-05-06T02:24:15.648Z,1162.00
2023-05-06T02:25:15.715Z,1155.00
2023-05-06T02:26:15.763Z,1152.00
2023-05-06T02:27:15.821Z,1147.00
2023-05-06T02:28:16.836Z,1144.00
2023-05-06T02:29:15.945Z,1137.00
2023-05-06T02:30:15.986Z,1137.00
2023-05-06T02:31:16.097Z,1147.00
2023-05-06T02:32:16.084Z,1140.00
2023-05-06T02:33:16.135Z,1144.00
2023-05-06T02:34:16.202Z,1141.00
2023-05-06T02:35:16.263Z,1140.00
2023-05-06T02:36:16.322Z,1143.00
2023-05-06T02:37:16.357Z,1133.00
2023-05-06T02:38:16.393Z,1133.00
2023-05-06T02:39:16.457Z,1137.00
2023-05-06T02:40:16.540Z,1139.00
2023-05-06T02:41:16.599Z,1130.00
2023-05-06T02:42:16.679Z,1128.00
2023-05-06T02:43:16.738Z,1131.00
2023-05-06T02:44:16.779Z,1139.00
2023-05-06T02:45:16.848Z,1131.00
2023-05-06T02:46:16.966Z,1120.00
2023-05-06T02:47:16.953Z,1131.00
2023-05-06T02:48:16.972Z,1130.00
2023-05-06T02:49:17.066Z,1126.00
2023-05-06T02:50:17.143Z,1133.00
2023-05-06T02:51:17.196Z,1125.00
2023-05-06T02:52:17.261Z,1122.00
2023-05-06T02:53:17.277Z,1118.00
2023-05-06T02:54:17.325Z,1126.00
2023-05-06T02:55:17.396Z,1116.00
2023-05-06T02:56:17.433Z,1123.00
2023-05-06T02:57:17.508Z,1119.00
2023-05-06T02:58:17.558Z,1116.00
2023-05-06T02:59:17.861Z,1127.00
2023-05-06T03:00:17.652Z,1120.00
2023-05-06T03:01:17.718Z,1124.00
2023-05-06T03:02:17.785Z,1112.00
2023-05-06T03:03:17.808Z,1106.00
2023-05-06T03:04:17.902Z,1116.00
2023-05-06T03:05:17.941Z,1121.00
2023-05-06T03:06:17.996Z,1104.00
2023-05-06T03:07:18.025Z,1124.00
2023-05-06T03:08:18.112Z,1107.00
2023-05-06T03:09:18.136Z,1116.00
2023-05-06T03:10:18.240Z,1111.00
2023-05-06T03:11:18.286Z,1108.00
2023-05-06T03:12:18.353Z,1104.00
2023-05-06T03:13:18.393Z,1111.00
2023-05-06T03:14:18.439Z,1103.00
2023-05-06T03:15:18.556Z,1100.00
2023-05-06T03:16:18.552Z,1094.00
2023-05-06T03:17:18.592Z,1097.00
2023-05-06T03:18:18.670Z,1110.00
2023-05-06T03:19:18.714Z,1095.00
2023-05-06T03:20:18.771Z,1098.00
2023-05-06T03:21:18.922Z,1089.00
2023-05-06T03:22:18.879Z,1105.00
2023-05-06T03:23:18.945Z,1097.00
2023-05-06T03:24:18.992Z,1099.00
2023-05-06T03:25:19.056Z,1097.00
2023-05-06T03:26:19.110Z,1098.00
2023-05-06T03:27:19.198Z,1100.00
2023-05-06T03:28:19.255Z,1100.00
2023-05-06T03:29:19.275Z,1093.00
2023-05-06T03:30:19.358Z,1091.00
2023-05-06T03:31:19.480Z,1104.00
2023-05-06T03:32:19.471Z,1081.00
2023-05-06T03:33:19.522Z,1088.00
2023-05-06T03:34:19.599Z,1098.00
2023-05-06T03:35:19.648Z,1089.00
2023-05-06T03:36:19.681Z,1096.00
2023-05-06T03:37:19.719Z,1086.00
2023-05-06T03:38:19.788Z,1095.00
2023-05-06T03:39:19.843Z,1100.00
2023-05-06T03:40:19.916Z,1093.00
2023-05-06T03:41:19.948Z,1094.00
2023-05-06T03:42:20.043Z,1087.00
2023-05-06T03:43:20.082Z,1087.00
2023-05-06T03:44:20.150Z,1072.00
2023-05-06T03:45:20.196Z,1073.00
2023-05-06T03:46:20.291Z,1079.00
2023-05-06T03:47:20.364Z,1086.00
2023-05-06T03:48:20.370Z,1086.00
2023-05-06T03:49:20.426Z,1078.00
2023-05-06T03:50:20.484Z,1078.00
2023-05-06T03:51:20.530Z,1066.00
2023-05-06T03:52:20.620Z,1083.00
2023-05-06T03:53:20.686Z,1069.00
2023-05-06T03:54:20.728Z,1078.00
2023-05-06T03:55:20.803Z,1068.00
2023-05-06T03:56:20.866Z,1068.00
2023-05-06T03:57:20.923Z,1067.00
2023-05-06T03:58:20.946Z,1072.00
2023-05-06T03:59:21.027Z,1069.00
2023-05-06T04:00:21.122Z,1072.00
2023-05-06T04:01:21.157Z,1065.00
2023-05-06T04:02:21.261Z,1063.00
2023-05-06T04:03:21.457Z,1064.00
2023-05-06T04:04:21.335Z,1058.00
2023-05-06T04:05:21.396Z,1052.00
2023-05-06T04:06:21.463Z,1065.00
2023-05-06T04:07:21.509Z,1060.00
2023-05-06T04:08:21.569Z,1060.00
2023-05-06T04:09:22.374Z,1054.00
2023-05-06T04:10:21.727Z,1058.00
2023-05-06T04:11:21.760Z,1055.00
2023-05-06T04:12:21.805Z,1048.00
2023-05-06T04:13:21.907Z,1053.00
2023-05-06T04:14:21.933Z,1055.00
2023-05-06T04:15:22.003Z,1059.00
2023-05-06T04:16:22.099Z,1045.00
2023-05-06T04:17:22.122Z,1045.00
2023-05-06T04:18:22.203Z,1043.00
2023-05-06T04:19:22.318Z,1053.00
2023-05-06T04:20:22.314Z,1043.00
2023-05-06T04:21:22.385Z,1055.00
2023-05-06T04:22:22.409Z,1040.00
2023-05-06T04:23:22.494Z,1047.00
2023-05-06T04:24:22.553Z,1044.00
2023-05-06T04:25:22.654Z,1050.00
2023-05-06T04:26:22.677Z,1057.00
2023-05-06T04:27:22.719Z,1050.00
2023-05-06T04:28:22.820Z,1049.00
2023-05-06T04:29:22.833Z,1040.00
2023-05-06T04:30:22.932Z,1055.00
2023-05-06T04:31:22.992Z,1033.00
2023-05-06T04:32:23.020Z,1038.00
2023-05-06T04:33:23.136Z,1035.00
2023-05-06T04:34:23.138Z,1029.00
2023-05-06T04:35:23.222Z,1034.00
2023-05-06T04:36:23.243Z,1049.00
2023-05-06T04:37:23.351Z,1039.00
2023-05-06T04:38:23.383Z,1030.00
2023-05-06T04:39:23.487Z,1037.00
2023-05-06T04:40:23.529Z,1043.00
2023-05-06T04:41:23.610Z,1050.00
2023-05-06T04:42:23.664Z,1033.00
2023-05-06T04:43:23.725Z,1031.00
2023-05-06T04:44:23.776Z,1025.00
2023-05-06T04:45:23.834Z,1030.00
2023-05-06T04:46:23.963Z,1020.00
2023-05-06T04:47:23.979Z,1034.00
2023-05-06T04:48:24.040Z,1021.00
2023-05-06T04:49:24.071Z,1022.00
2023-05-06T04:50:24.104Z,1026.00
2023-05-06T04:51:24.162Z,1026.00
2023-05-06T04:52:24.261Z,1024.00
2023-05-06T04:53:24.289Z,1031.00
2023-05-06T04:54:24.398Z,1021.00
2023-05-06T04:55:24.450Z,1021.00
2023-05-06T04:56:24.526Z,1017.00
2023-05-06T04:57:24.566Z,1015.00
2023-05-06T04:58:24.592Z,1002.00
2023-05-06T04:59:24.714Z,1031.00
2023-05-06T05:00:24.748Z,1014.00
2023-05-06T05:01:24.818Z,1020.00
2023-05-06T05:02:24.967Z,1006.00
2023-05-06T05:03:24.978Z,1008.00
2023-05-06T05:04:24.958Z,1023.00
2023-05-06T05:05:25.043Z,1006.00
2023-05-06T05:06:25.086Z,1021.00
2023-05-06T05:07:25.246Z,1019.00
2023-05-06T05:08:25.262Z,1002.00
2023-05-06T05:09:25.294Z,1008.00
2023-05-06T05:10:25.367Z,1010.00
2023-05-06T05:11:25.426Z,997.00
2023-05-06T05:12:25.494Z,1009.00
2023-05-06T05:13:25.544Z,1011.00
2023-05-06T05:14:25.583Z,997.00
2023-05-06T05:15:25.676Z,1006.00
2023-05-06T05:16:25.775Z,1004.00
2023-05-06T05:17:25.782Z,990.00
2023-05-06T05:18:25.866Z,999.00
2023-05-06T05:19:25.907Z,1002.00
2023-05-06T05:20:26.008Z,1000.00
2023-05-06T05:21:26.082Z,992.00
2023-05-06T05:22:26.112Z,991.00
2023-05-06T05:23:26.217Z,992.00
2023-05-06T05:24:26.239Z,998.00
2023-05-06T05:25:26.287Z,994.00
2023-05-06T05:26:26.369Z,991.00
2023-05-06T05:27:26.423Z,997.00
2023-05-06T05:28:26.471Z,1003.00
2023-05-06T05:29:26.533Z,992.00
2023-05-06T05:30:26.609Z,988.00
2023-05-06T05:31:26.693Z,992.00
2023-05-06T05:32:26.710Z,982.00
2023-05-06T05:33:26.801Z,984.00
2023-05-06T05:34:26.854Z,981.00
2023-05-06T05:35:26.953Z,985.00
2023-05-06T05:36:26.983Z,980.00
2023-05-06T05:37:27.018Z,980.00
2023-05-06T05:38:27.117Z,983.00
2023-05-06T05:39:27.195Z,983.00
2023-05-06T05:40:27.212Z,984.00
2023-05-06T05:41:27.279Z,995.00
2023-05-06T05:42:27.337Z,974.00
2023-05-06T05:43:27.389Z,978.00
2023-05-06T05:44:27.469Z,984.00
2023-05-06T05:45:27.528Z,976.00
2023-05-06T05:46:27.594Z,994.00
2023-05-06T05:47:27.638Z,991.00
2023-05-06T05:48:27.722Z,973.00
2023-05-06T05:49:27.750Z,982.00
2023-05-06T05:50:27.902Z,974.00
2023-05-06T05:51:27.888Z,973.00
2023-05-06T05:52:27.949Z,981.00
2023-05-06T05:53:27.992Z,964.00
2023-05-06T05:54:28.065Z,972.00
2023-05-06T05:55:28.280Z,981.00
2023-05-06T05:56:28.211Z,964.00
2023-05-06T05:57:28.301Z,974.00
2023-05-06T05:58:28.329Z,968.00
2023-05-06T05:59:28.409Z,967.00
2023-05-06T06:00:28.488Z,969.00
2023-05-06T06:01:28.524Z,965.00
2023-05-06T06:02:28.655Z,958.00
2023-05-06T06:03:28.795Z,971.00
2023-05-06T06:04:28.734Z,978.00
2023-05-06T06:05:28.794Z,957.00
2023-05-06T06:06:28.846Z,963.00
2023-05-06T06:07:28.900Z,959.00
2023-05-06T06:08:28.953Z,971.00
2023-05-06T06:09:29.030Z,954.00
2023-05-06T06:10:29.178Z,955.00
2023-05-06T06:11:29.207Z,952.00
2023-05-06T06:12:29.214Z,962.00
2023-05-06T06:13:29.345Z,962.00
2023-05-06T06:14:29.329Z,942.00
2023-05-06T06:15:29.388Z,962.00
2023-05-06T06:16:29.513Z,960.00
2023-05-06T06:17:29.561Z,957.00
2023-05-06T06:18:29.586Z,954.00
2023-05-06T06:19:29.599Z,950.00
2023-05-06T06:20:29.708Z,949.00
2023-05-06T06:21:29.768Z,944.00
2023-05-06T06:22:29.773Z,958.00
2023-05-06T06:23:29.869Z,947.00
2023-05-06T06:24:29.906Z,951.00
2023-05-06T06:25:29.988Z,949.00
2023-05-06T06:26:30.027Z,940.00
2023-05-06T06:27:30.061Z,941.00
2023-05-06T06:28:30.131Z,931.00
2023-05-06T06:29:30.194Z,947.00
2023-05-06T06:30:30.262Z,940.00
2023-05-06T06:31:30.328Z,942.00
2023-05-06T06:32:30.360Z,948.00
2023-05-06T06:33:30.521Z,940.00
2023-05-06T06:34:30.497Z,953.00
2023-05-06T06:35:30.568Z,939.00
2023-05-06T06:36:30.609Z,948.00
2023-05-06T06:37:30.670Z,936.00
2023-05-06T06:38:30.743Z,943.00
2023-05-06T06:39:30.798Z,937.00
2023-05-06T06:40:30.868Z,943.00
2023-05-06T06:41:30.920Z,936.00
2023-05-06T06:42:30.952Z,937.00
2023-05-06T06:43:31.129Z,941.00
2023-05-06T06:44:31.054Z,935.00
2023-05-06T06:45:31.214Z,931.00
2023-05-06T06:46:31.175Z,937.00
2023-05-06T06:47:31.297Z,930.00
2023-05-06T06:48:31.312Z,948.00
2023-05-06T06:49:31.415Z,938.00
2023-05-06T06:50:31.422Z,932.00
2023-05-06T06:51:31.502Z,927.00
2023-05-06T06:52:31.533Z,929.00
2023-05-06T06:53:31.610Z,921.00
2023-05-06T06:54:31.646Z,931.00
2023-05-06T06:55:31.701Z,921.00
2023-05-06T06:56:31.813Z,935.00
2023-05-06T06:57:31.807Z,920.00
2023-05-06T06:58:31.873Z,928.00
2023-05-06T06:59:32.004Z,919.00
2023-05-06T07:00:32.015Z,923.00
2023-05-06T07:01:32.080Z,920.00
2023-05-06T07:02:32.219Z,927.00
2023-05-06T07:03:32.165Z,924.00
2023-05-06T07:04:32.279Z,932.00
2023-05-06T07:05:32.331Z,933.00
2023-05-06T07:06:32.339Z,925.00
2023-05-06T07:07:32.402Z,914.00
2023-05-06T07:08:32.450Z,918.00
2023-05-06T07:09:33.406Z,923.00
2023-05-06T07:10:32.660Z,925.00
2023-05-06T07:11:32.710Z,922.00
2023-05-06T07:12:32.794Z,922.00
2023-05-06T07:13:32.840Z,918.00
2023-05-06T07:14:32.905Z,912.00
2023-05-06T07:15:33.088Z,918.00
2023-05-06T07:16:33.038Z,909.00
2023-05-06T07:17:33.124Z,919.00
2023-05-06T07:18:33.109Z,905.00
2023-05-06T07:19:33.948Z,922.00
2023-05-06T07:20:33.260Z,914.00
2023-05-06T07:21:33.301Z,915.00
2023-05-06T07:22:33.374Z,908.00
2023-05-06T07:23:33.449Z,912.00
2023-05-06T07:24:33.494Z,920.00
2023-05-06T07:25:33.561Z,907.00
2023-05-06T07:26:33.593Z,910.00
2023-05-06T07:27:33.684Z,908.00
2023-05-06T07:28:33.738Z,917.00
2023-05-06T07:29:33.769Z,912.00
2023-05-06T07:30:33.869Z,905.00
2023-05-06T07:31:33.954Z,909.00
2023-05-06T07:32:34.050Z,913.00
2023-05-06T07:33:34.052Z,912.00
2023-05-06T07:34:34.117Z,902.00
2023-05-06T07:35:34.136Z,905.00
2023-05-06T07:36:34.210Z,919.00
2023-05-06T07:37:34.280Z,905.00
2023-05-06T07:38:34.344Z,900.00
2023-05-06T07:39:34.390Z,909.00
2023-05-06T07:40:34.462Z,902.00
2023-05-06T07:41:34.533Z,891.00
2023-05-06T07:42:34.549Z,895.00
2023-05-06T07:43:34.622Z,899.00
2023-05-06T07:44:34.687Z,895.00
2023-05-06T07:45:34.718Z,902.00
2023-05-06T07:46:34.889Z,901.00
2023-05-06T07:47:34.955Z,898.00
2023-05-06T07:48:34.887Z,906.00
2023-05-06T07:49:34.966Z,892.00
2023-05-06T07:50:35.044Z,891.00
2023-05-06T07:51:35.082Z,892.00
2023-05-06T07:52:35.160Z,895.00
2023-05-06T07:53:35.189Z,896.00
2023-05-06T07:54:35.249Z,887.00
2023-05-06T07:55:35.393Z,897.00
2023-05-06T07:56:35.342Z,883.00
2023-05-06T07:57:35.406Z,886.00
2023-05-06T07:58:35.443Z,886.00
2023-05-06T07:59:35.545Z,879.00
2023-05-06T08:00:35.573Z,887.00
2023-05-06T08:01:35.635Z,880.00
2023-05-06T08:02:35.845Z,882.00
2023-05-06T08:03:36.167Z,883.00
2023-05-06T08:04:35.831Z,885.00
2023-05-06T08:05:35.874Z,881.00
2023-05-06T08:06:35.901Z,880.00
2023-05-06T08:07:35.985Z,888.00
2023-05-06T08:08:36.049Z,886.00
2023-05-06T08:09:36.117Z,875.00
2023-05-06T08:10:36.198Z,877.00
2023-05-06T08:11:36.992Z,877.00
2023-05-06T08:12:36.368Z,876.00
2023-05-06T08:13:36.347Z,890.00
2023-05-06T08:14:36.417Z,879.00
2023-05-06T08:15:36.484Z,868.00
2023-05-06T08:16:36.548Z,883.00
2023-05-06T08:17:36.626Z,874.00
2023-05-06T08:18:36.655Z,880.00
2023-05-06T08:19:36.755Z,873.00
2023-05-06T08:20:36.791Z,867.00
2023-05-06T08:21:36.834Z,877.00
2023-05-06T08:22:36.887Z,884.00
2023-05-06T08:23:36.935Z,880.00
2023-05-06T08:24:36.989Z,883.00
2023-05-06T08:25:37.043Z,874.00
2023-05-06T08:26:37.104Z,867.00
2023-05-06T08:27:37.175Z,870.00
2023-05-06T08:28:37.219Z,866.00
2023-05-06T08:29:37.241Z,860.00
2023-05-06T08:30:37.318Z,866.00
2023-05-06T08:31:37.387Z,864.00
2023-05-06T08:32:37.481Z,861.00
2023-05-06T08:33:37.456Z,848.00
2023-05-06T08:34:37.522Z,866.00
2023-05-06T08:35:37.653Z,857.00
2023-05-06T08:36:37.646Z,870.00
2023-05-06T08:37:37.719Z,858.00
2023-05-06T08:38:37.755Z,861.00
2023-05-06T08:39:37.807Z,858.00
2023-05-06T08:40:37.902Z,854.00
2023-05-06T08:41:37.911Z,861.00
2023-05-06T08:42:37.993Z,864.00
2023-05-06T08:43:38.042Z,853.00
2023-05-06T08:44:38.109Z,858.00
2023-05-06T08:45:38.141Z,854.00
2023-05-06T08:46:38.207Z,855.00
2023-05-06T08:47:38.272Z,857.00
2023-05-06T08:48:38.312Z,851.00
2023-05-06T08:49:38.392Z,853.00
2023-05-06T08:50:38.407Z,855.00
2023-05-06T08:51:38.536Z,851.00
2023-05-06T08:52:38.567Z,849.00
2023-05-06T08:53:38.538Z,863.00
2023-05-06T08:54:38.621Z,851.00
2023-05-06T08:55:38.678Z,856.00
2023-05-06T08:56:38.740Z,846.00
2023-05-06T08:57:38.774Z,847.00
2023-05-06T08:58:38.834Z,849.00
2023-05-06T08:59:38.863Z,858.00
2023-05-06T09:00:38.907Z,837.00
2023-05-06T09:01:39.021Z,842.00
2023-05-06T09:02:41.236Z,849.00
2023-05-06T09:03:39.089Z,853.00
2023-05-06T09:04:38.993Z,841.00
2023-05-06T09:05:39.077Z,847.00
2023-05-06T09:06:39.008Z,844.00
2023-05-06T09:07:39.084Z,841.00
2023-05-06T09:08:38.983Z,845.00
2023-05-06T09:09:38.989Z,843.00
2023-05-06T09:10:38.979Z,840.00
2023-05-06T09:11:38.981Z,843.00
2023-05-06T09:12:38.997Z,839.00
2023-05-06T09:13:38.963Z,840.00
2023-05-06T09:14:38.973Z,832.00
2023-05-06T09:15:38.926Z,835.00
2023-05-06T09:16:38.945Z,841.00
2023-05-06T09:17:38.967Z,844.00
2023-05-06T09:18:38.912Z,840.00
2023-05-06T09:19:38.909Z,842.00
2023-05-06T09:20:38.906Z,833.00
2023-05-06T09:21:38.898Z,848.00
2023-05-06T09:22:38.907Z,840.00
2023-05-06T09:23:39.044Z,843.00
2023-05-06T09:24:38.897Z,844.00
2023-05-06T09:25:38.862Z,820.00
2023-05-06T09:26:38.874Z,832.00
2023-05-06T09:27:38.860Z,839.00
2023-05-06T09:28:38.845Z,842.00
2023-05-06T09:29:38.839Z,825.00
2023-05-06T09:30:38.868Z,826.00
2023-05-06T09:31:38.847Z,834.00
2023-05-06T09:32:40.406Z,819.00
2023-05-06T09:33:38.820Z,824.00
2023-05-06T09:34:38.821Z,826.00
2023-05-06T09:35:38.790Z,845.00
2023-05-06T09:36:38.790Z,834.00
2023-05-06T09:37:38.769Z,829.00
2023-05-06T09:38:38.776Z,831.00
2023-05-06T09:39:38.794Z,823.00
2023-05-06T09:40:38.849Z,824.00
2023-05-06T09:41:38.895Z,827.00
2023-05-06T09:42:38.951Z,830.00
2023-05-06T09:43:38.987Z,827.00
2023-05-06T09:44:39.055Z,825.00
2023-05-06T09:45:39.142Z,827.00
2023-05-06T09:46:39.229Z,823.00
2023-05-06T09:47:39.279Z,833.00
2023-05-06T09:48:39.312Z,821.00
2023-05-06T09:49:39.317Z,823.00
2023-05-06T09:50:39.388Z,822.00
2023-05-06T09:51:39.436Z,817.00
2023-05-06T09:52:39.478Z,812.00
2023-05-06T09:53:39.518Z,825.00
2023-05-06T09:54:39.602Z,814.00
2023-05-06T09:55:39.705Z,822.00
2023-05-06T09:56:40.497Z,823.00
2023-05-06T09:57:39.737Z,814.00
2023-05-06T09:58:39.783Z,813.00
2023-05-06T09:59:39.860Z,815.00
2023-05-06T10:00:39.912Z,816.00
2023-05-06T10:01:40.018Z,811.00
2023-05-06T10:02:40.080Z,809.00
2023-05-06T10:03:40.206Z,808.00
2023-05-06T10:04:40.291Z,816.00
2023-05-06T10:05:40.183Z,823.00
2023-05-06T10:06:40.221Z,820.00
2023-05-06T10:07:40.274Z,803.00
2023-05-06T10:08:40.302Z,815.00
2023-05-06T10:09:40.364Z,806.00
2023-05-06T10:10:40.442Z,805.00
2023-05-06T10:11:40.646Z,800.00
2023-05-06T10:12:40.591Z,819.00
2023-05-06T10:13:40.597Z,807.00
2023-05-06T10:14:40.642Z,803.00
2023-05-06T10:15:40.698Z,806.00
2023-05-06T10:16:40.789Z,814.00
2023-05-06T10:17:40.799Z,805.00
2023-05-06T10:18:40.862Z,809.00
2023-05-06T10:19:40.907Z,798.00
2023-05-06T10:20:41.012Z,804.00
2023-05-06T10:21:41.022Z,803.00
2023-05-06T10:22:41.084Z,800.00
2023-05-06T10:23:41.127Z,808.00
2023-05-06T10:24:41.209Z,806.00
2023-05-06T10:25:41.267Z,805.00
2023-05-06T10:26:41.274Z,806.00
2023-05-06T10:27:41.442Z,797.00
2023-05-06T10:28:41.387Z,798.00
2023-05-06T10:29:41.476Z,797.00
2023-05-06T10:30:41.521Z,800.00
2023-05-06T10:31:41.631Z,801.00
2023-05-06T10:32:41.684Z,805.00
2023-05-06T10:33:42.438Z,807.00
2023-05-06T10:34:41.696Z,813.00
2023-05-06T10:35:41.782Z,805.00
2023-05-06T10:36:41.821Z,797.00
2023-05-06T10:37:41.874Z,791.00
2023-05-06T10:38:41.921Z,813.00
2023-05-06T10:39:42.295Z,805.00
2023-05-06T10:40:42.036Z,798.00
2023-05-06T10:41:42.077Z,796.00
2023-05-06T10:42:42.145Z,801.00
2023-05-06T10:43:42.177Z,806.00
2023-05-06T10:44:42.345Z,800.00
2023-05-06T10:45:42.312Z,813.00
2023-05-06T10:46:42.319Z,791.00
2023-05-06T10:47:42.410Z,795.00
2023-05-06T10:48:42.432Z,805.00
2023-05-06T10:49:42.484Z,786.00
2023-05-06T10:50:43.621Z,796.00
2023-05-06T10:51:42.595Z,791.00
2023-05-06T10:52:42.662Z,802.00
2023-05-06T10:53:42.732Z,799.00
2023-05-06T10:54:42.777Z,805.00
2023-05-06T10:55:42.833Z,798.00
2023-05-06T10:56:44.118Z,797.00
2023-05-06T10:57:42.874Z,809.00
2023-05-06T10:58:42.851Z,802.00
2023-05-06T10:59:42.927Z,790.00
2023-05-06T11:00:42.909Z,792.00
2023-05-06T11:01:42.868Z,790.00
2023-05-06T11:02:43.502Z,795.00
2023-05-06T11:03:42.867Z,796.00
2023-05-06T11:04:42.825Z,795.00
2023-05-06T11:05:42.807Z,796.00
2023-05-06T11:06:42.814Z,797.00
2023-05-06T11:07:42.817Z,795.00
2023-05-06T11:08:44.207Z,793.00
2023-05-06T11:09:42.818Z,804.00
2023-05-06T11:10:42.793Z,792.00
2023-05-06T11:11:42.768Z,797.00
2023-05-06T11:12:42.824Z,796.00
2023-05-06T11:13:42.788Z,794.00
2023-05-06T11:14:42.752Z,789.00
2023-05-06T11:15:42.844Z,783.00
2023-05-06T11:16:42.772Z,793.00
2023-05-06T11:17:42.800Z,791.00
2023-05-06T11:18:42.750Z,790.00
2023-05-06T11:19:42.710Z,796.00
2023-05-06T11:20:42.733Z,794.00
2023-05-06T11:21:42.711Z,788.00
2023-05-06T11:22:42.720Z,777.00
2023-05-06T11:23:43.069Z,788.00
2023-05-06T11:24:42.697Z,792.00
2023-05-06T11:25:42.699Z,789.00
2023-05-06T11:26:42.696Z,781.00
2023-05-06T11:27:42.701Z,783.00
2023-05-06T11:28:42.672Z,773.00
2023-05-06T11:29:42.670Z,783.00
2023-05-06T11:30:42.763Z,792.00
2023-05-06T11:31:42.721Z,785.00
2023-05-06T11:32:42.785Z,778.00
2023-05-06T11:33:42.645Z,787.00
2023-05-06T11:34:42.643Z,785.00
2023-05-06T11:35:42.632Z,780.00
2023-05-06T11:36:42.622Z,768.00
2023-05-06T11:37:42.642Z,772.00
2023-05-06T11:38:42.595Z,782.00
2023-05-06T11:39:42.611Z,781.00
2023-05-06T11:40:42.623Z,774.00
2023-05-06T11:41:42.598Z,772.00
2023-05-06T11:42:42.579Z,787.00
2023-05-06T11:43:42.578Z,777.00
2023-05-06T11:44:42.610Z,774.00
2023-05-06T11:45:42.621Z,771.00
2023-05-06T11:46:42.661Z,775.00
2023-05-06T11:47:42.782Z,765.00
2023-05-06T11:48:42.694Z,769.00
2023-05-06T11:49:42.765Z,776.00
2023-05-06T11:50:42.804Z,771.00
2023-05-06T11:51:42.842Z,782.00
2023-05-06T11:52:42.914Z,768.00
2023-05-06T11:53:42.953Z,780.00
2023-05-06T11:54:43.029Z,777.00
2023-05-06T11:55:43.052Z,775.00
2023-05-06T11:56:43.151Z,775.00
2023-05-06T11:57:43.174Z,788.00
2023-05-06T11:58:43.228Z,775.00
2023-05-06T11:59:43.309Z,767.00
2023-05-06T12:00:43.313Z,788.00
2023-05-06T12:01:43.406Z,783.00
2023-05-06T12:02:43.449Z,781.00
2023-05-06T12:03:43.679Z,767.00
2023-05-06T12:04:43.608Z,760.00
2023-05-06T12:05:43.576Z,780.00
2023-05-06T12:06:43.638Z,780.00
2023-05-06T12:07:43.705Z,780.00
2023-05-06T12:08:43.786Z,774.00
2023-05-06T12:09:43.847Z,781.00
2023-05-06T12:10:43.869Z,768.00
2023-05-06T12:11:45.008Z,783.00
2023-05-06T12:12:44.010Z,776.00
2023-05-06T12:13:44.043Z,783.00
2023-05-06T12:14:44.073Z,777.00
2023-05-06T12:15:44.170Z,770.00
2023-05-06T12:16:44.249Z,773.00
2023-05-06T12:17:44.320Z,764.00
2023-05-06T12:18:44.307Z,778.00